Terminal Aerodrome Forecast
Issued by NWS

Current Version | Previous Version | Graphics & Text | Print | Product List | Glossary On
Versions: 1 2 3 4 5 6 7 8 9 10 11 12 13 14 15 16 17 18 19
000
FTUS41 KILN 242300 RRA
TAFLCK
TAF
KLCK 242342Z 2500/2524 19010G16KT P6SM SCT250
     FM250300 16008KT P6SM BKN200
     FM251300 19016G22KT P6SM SCT050 BKN080
     FM252100 22017G26KT P6SM VCSH BKN050=

USA.gov is the U.S. government's official web portal to all federal, state and local government web resources and services.